sensor_id;sensor_type;location;lat;lon;timestamp;P1;durP1;ratioP1;P2;durP2;ratioP2
60038;SDS011;45916;52.734;6.544;2023-03-11T00:00:49;7.30;;;4.10;;
60038;SDS011;45916;52.734;6.544;2023-03-11T00:03:15;6.63;;;3.85;;
60038;SDS011;45916;52.734;6.544;2023-03-11T00:05:43;13.20;;;5.22;;
60038;SDS011;45916;52.734;6.544;2023-03-11T00:08:11;8.98;;;4.00;;
60038;SDS011;45916;52.734;6.544;2023-03-11T00:10:40;8.40;;;4.28;;
60038;SDS011;45916;52.734;6.544;2023-03-11T00:13:08;9.38;;;4.78;;
60038;SDS011;45916;52.734;6.544;2023-03-11T00:15:35;7.45;;;4.38;;
60038;SDS011;45916;52.734;6.544;2023-03-11T00:18:01;8.02;;;4.85;;
60038;SDS011;45916;52.734;6.544;2023-03-11T00:20:38;9.85;;;3.80;;
60038;SDS011;45916;52.734;6.544;2023-03-11T00:23:07;9.32;;;3.63;;
60038;SDS011;45916;52.734;6.544;2023-03-11T00:25:33;8.88;;;4.32;;
60038;SDS011;45916;52.734;6.544;2023-03-11T00:28:01;6.55;;;3.67;;
60038;SDS011;45916;52.734;6.544;2023-03-11T00:30:27;7.45;;;3.70;;
60038;SDS011;45916;52.734;6.544;2023-03-11T00:32:54;11.30;;;3.90;;
60038;SDS011;45916;52.734;6.544;2023-03-11T00:35:22;9.63;;;3.67;;
60038;SDS011;45916;52.734;6.544;2023-03-11T00:37:52;9.52;;;3.55;;
60038;SDS011;45916;52.734;6.544;2023-03-11T00:40:19;8.25;;;4.28;;
60038;SDS011;45916;52.734;6.544;2023-03-11T00:42:46;6.00;;;3.38;;
60038;SDS011;45916;52.734;6.544;2023-03-11T00:45:12;9.63;;;4.25;;
60038;SDS011;45916;52.734;6.544;2023-03-11T00:47:38;10.25;;;4.28;;
60038;SDS011;45916;52.734;6.544;2023-03-11T00:50:04;9.88;;;3.67;;
60038;SDS011;45916;52.734;6.544;2023-03-11T00:52:31;8.40;;;3.17;;
60038;SDS011;45916;52.734;6.544;2023-03-11T00:54:57;8.60;;;3.72;;
60038;SDS011;45916;52.734;6.544;2023-03-11T00:57:23;8.10;;;3.05;;
60038;SDS011;45916;52.734;6.544;2023-03-11T00:59:50;8.73;;;3.15;;
60038;SDS011;45916;52.734;6.544;2023-03-11T01:02:17;8.23;;;3.88;;
60038;SDS011;45916;52.734;6.544;2023-03-11T01:04:43;9.32;;;3.35;;
60038;SDS011;45916;52.734;6.544;2023-03-11T01:07:08;7.82;;;3.55;;
60038;SDS011;45916;52.734;6.544;2023-03-11T01:09:34;9.23;;;4.15;;
60038;SDS011;45916;52.734;6.544;2023-03-11T01:12:00;6.93;;;3.63;;
60038;SDS011;45916;52.734;6.544;2023-03-11T01:14:25;7.90;;;3.55;;
60038;SDS011;45916;52.734;6.544;2023-03-11T01:16:51;10.90;;;3.50;;
60038;SDS011;45916;52.734;6.544;2023-03-11T01:19:17;6.57;;;3.15;;
60038;SDS011;45916;52.734;6.544;2023-03-11T01:21:43;8.70;;;3.28;;
60038;SDS011;45916;52.734;6.544;2023-03-11T01:24:09;7.03;;;3.10;;
60038;SDS011;45916;52.734;6.544;2023-03-11T01:26:35;15.60;;;3.80;;
60038;SDS011;45916;52.734;6.544;2023-03-11T01:29:00;10.27;;;3.08;;
60038;SDS011;45916;52.734;6.544;2023-03-11T01:31:26;7.53;;;2.80;;
60038;SDS011;45916;52.734;6.544;2023-03-11T01:33:52;7.32;;;3.35;;
60038;SDS011;45916;52.734;6.544;2023-03-11T01:36:17;7.25;;;2.83;;
60038;SDS011;45916;52.734;6.544;2023-03-11T01:38:43;6.85;;;2.78;;
60038;SDS011;45916;52.734;6.544;2023-03-11T01:41:10;5.88;;;2.20;;
60038;SDS011;45916;52.734;6.544;2023-03-11T01:46:19;10.50;;;3.30;;
60038;SDS011;45916;52.734;6.544;2023-03-11T01:51:40;8.43;;;2.55;;
60038;SDS011;45916;52.734;6.544;2023-03-11T01:54:08;5.55;;;2.70;;
60038;SDS011;45916;52.734;6.544;2023-03-11T01:56:38;7.20;;;2.35;;
60038;SDS011;45916;52.734;6.544;2023-03-11T01:59:06;11.50;;;2.83;;
60038;SDS011;45916;52.734;6.544;2023-03-11T02:01:35;9.23;;;2.60;;
60038;SDS011;45916;52.734;6.544;2023-03-11T02:04:08;6.75;;;2.30;;
60038;SDS011;45916;52.734;6.544;2023-03-11T02:06:34;6.65;;;2.83;;
60038;SDS011;45916;52.734;6.544;2023-03-11T02:09:00;5.95;;;2.47;;
60038;SDS011;45916;52.734;6.544;2023-03-11T02:11:26;8.85;;;3.38;;
60038;SDS011;45916;52.734;6.544;2023-03-11T02:13:55;10.07;;;2.35;;
60038;SDS011;45916;52.734;6.544;2023-03-11T02:16:24;7.32;;;2.83;;
60038;SDS011;45916;52.734;6.544;2023-03-11T02:18:50;7.03;;;2.72;;
60038;SDS011;45916;52.734;6.544;2023-03-11T02:21:29;5.18;;;2.05;;
60038;SDS011;45916;52.734;6.544;2023-03-11T02:29:33;6.10;;;2.75;;
60038;SDS011;45916;52.734;6.544;2023-03-11T02:32:00;5.38;;;2.70;;
60038;SDS011;45916;52.734;6.544;2023-03-11T02:34:30;7.05;;;2.40;;
60038;SDS011;45916;52.734;6.544;2023-03-11T02:36:57;9.05;;;3.08;;
60038;SDS011;45916;52.734;6.544;2023-03-11T02:39:33;7.82;;;3.25;;
60038;SDS011;45916;52.734;6.544;2023-03-11T02:42:11;7.40;;;2.70;;
60038;SDS011;45916;52.734;6.544;2023-03-11T02:44:55;11.43;;;3.47;;
60038;SDS011;45916;52.734;6.544;2023-03-11T02:47:29;6.60;;;2.60;;
60038;SDS011;45916;52.734;6.544;2023-03-11T02:49:55;7.85;;;3.17;;
60038;SDS011;45916;52.734;6.544;2023-03-11T02:52:22;8.27;;;3.50;;
60038;SDS011;45916;52.734;6.544;2023-03-11T02:57:15;6.43;;;2.50;;
60038;SDS011;45916;52.734;6.544;2023-03-11T02:59:41;7.00;;;3.05;;
60038;SDS011;45916;52.734;6.544;2023-03-11T03:02:07;10.55;;;2.90;;
60038;SDS011;45916;52.734;6.544;2023-03-11T03:04:32;6.05;;;2.30;;
60038;SDS011;45916;52.734;6.544;2023-03-11T03:06:58;6.75;;;2.13;;
60038;SDS011;45916;52.734;6.544;2023-03-11T03:09:23;6.88;;;2.30;;
60038;SDS011;45916;52.734;6.544;2023-03-11T03:11:49;7.43;;;3.00;;
60038;SDS011;45916;52.734;6.544;2023-03-11T03:14:15;8.75;;;2.15;;
60038;SDS011;45916;52.734;6.544;2023-03-11T03:16:40;6.55;;;2.85;;
60038;SDS011;45916;52.734;6.544;2023-03-11T03:19:06;7.95;;;2.17;;
60038;SDS011;45916;52.734;6.544;2023-03-11T03:21:32;7.03;;;2.53;;
60038;SDS011;45916;52.734;6.544;2023-03-11T03:23:57;7.55;;;2.35;;
60038;SDS011;45916;52.734;6.544;2023-03-11T03:26:23;5.40;;;2.60;;
60038;SDS011;45916;52.734;6.544;2023-03-11T03:28:49;8.38;;;2.30;;
60038;SDS011;45916;52.734;6.544;2023-03-11T03:31:14;9.68;;;2.90;;
60038;SDS011;45916;52.734;6.544;2023-03-11T03:33:40;8.00;;;2.40;;
60038;SDS011;45916;52.734;6.544;2023-03-11T03:36:10;5.88;;;2.38;;
60038;SDS011;45916;52.734;6.544;2023-03-11T03:38:37;7.72;;;2.83;;
60038;SDS011;45916;52.734;6.544;2023-03-11T03:41:03;8.10;;;2.70;;
60038;SDS011;45916;52.734;6.544;2023-03-11T03:43:29;7.35;;;2.67;;
60038;SDS011;45916;52.734;6.544;2023-03-11T03:45:55;6.18;;;2.25;;
60038;SDS011;45916;52.734;6.544;2023-03-11T03:48:29;5.85;;;2.67;;
60038;SDS011;45916;52.734;6.544;2023-03-11T03:50:55;6.93;;;2.70;;
60038;SDS011;45916;52.734;6.544;2023-03-11T03:53:20;7.10;;;2.60;;
60038;SDS011;45916;52.734;6.544;2023-03-11T03:55:46;5.70;;;2.42;;
60038;SDS011;45916;52.734;6.544;2023-03-11T03:58:13;7.78;;;2.85;;
60038;SDS011;45916;52.734;6.544;2023-03-11T04:00:39;8.55;;;2.80;;
60038;SDS011;45916;52.734;6.544;2023-03-11T04:03:05;7.70;;;3.10;;
60038;SDS011;45916;52.734;6.544;2023-03-11T04:05:31;10.05;;;3.97;;
60038;SDS011;45916;52.734;6.544;2023-03-11T04:07:56;5.43;;;2.35;;
60038;SDS011;45916;52.734;6.544;2023-03-11T04:10:22;6.50;;;2.80;;
60038;SDS011;45916;52.734;6.544;2023-03-11T04:12:48;7.15;;;3.05;;
60038;SDS011;45916;52.734;6.544;2023-03-11T04:15:14;7.15;;;2.65;;
60038;SDS011;45916;52.734;6.544;2023-03-11T04:17:39;6.75;;;2.78;;
60038;SDS011;45916;52.734;6.544;2023-03-11T04:20:05;7.53;;;2.80;;
60038;SDS011;45916;52.734;6.544;2023-03-11T04:22:32;8.25;;;2.70;;
60038;SDS011;45916;52.734;6.544;2023-03-11T04:24:58;6.72;;;3.10;;
60038;SDS011;45916;52.734;6.544;2023-03-11T04:27:24;9.65;;;2.90;;
60038;SDS011;45916;52.734;6.544;2023-03-11T04:29:50;7.35;;;2.50;;
60038;SDS011;45916;52.734;6.544;2023-03-11T04:32:15;4.43;;;2.25;;
60038;SDS011;45916;52.734;6.544;2023-03-11T04:34:41;6.57;;;2.92;;
60038;SDS011;45916;52.734;6.544;2023-03-11T04:37:07;6.60;;;2.97;;
60038;SDS011;45916;52.734;6.544;2023-03-11T04:39:32;7.95;;;2.90;;
60038;SDS011;45916;52.734;6.544;2023-03-11T04:41:58;7.60;;;2.83;;
60038;SDS011;45916;52.734;6.544;2023-03-11T04:44:24;7.10;;;2.88;;
60038;SDS011;45916;52.734;6.544;2023-03-11T04:46:49;6.90;;;3.08;;
60038;SDS011;45916;52.734;6.544;2023-03-11T04:49:15;7.18;;;2.75;;
60038;SDS011;45916;52.734;6.544;2023-03-11T04:51:41;8.20;;;3.13;;
60038;SDS011;45916;52.734;6.544;2023-03-11T04:54:07;5.70;;;2.90;;
60038;SDS011;45916;52.734;6.544;2023-03-11T04:56:32;6.20;;;3.35;;
60038;SDS011;45916;52.734;6.544;2023-03-11T04:58:58;7.15;;;2.75;;
60038;SDS011;45916;52.734;6.544;2023-03-11T05:01:25;10.63;;;3.40;;
60038;SDS011;45916;52.734;6.544;2023-03-11T05:03:50;7.15;;;2.70;;
60038;SDS011;45916;52.734;6.544;2023-03-11T05:06:16;5.63;;;3.42;;
60038;SDS011;45916;52.734;6.544;2023-03-11T05:08:42;6.95;;;2.85;;
60038;SDS011;45916;52.734;6.544;2023-03-11T05:11:08;5.28;;;2.80;;
60038;SDS011;45916;52.734;6.544;2023-03-11T05:13:33;7.10;;;3.42;;
60038;SDS011;45916;52.734;6.544;2023-03-11T05:15:59;8.52;;;3.38;;
60038;SDS011;45916;52.734;6.544;2023-03-11T05:18:25;6.35;;;2.58;;
60038;SDS011;45916;52.734;6.544;2023-03-11T05:20:51;6.90;;;2.70;;
60038;SDS011;45916;52.734;6.544;2023-03-11T05:23:17;6.95;;;2.78;;
60038;SDS011;45916;52.734;6.544;2023-03-11T05:25:43;7.18;;;3.10;;
60038;SDS011;45916;52.734;6.544;2023-03-11T05:28:09;8.32;;;2.80;;
60038;SDS011;45916;52.734;6.544;2023-03-11T05:30:35;6.90;;;2.95;;
60038;SDS011;45916;52.734;6.544;2023-03-11T05:33:02;6.53;;;3.15;;
60038;SDS011;45916;52.734;6.544;2023-03-11T05:35:31;7.97;;;3.10;;
60038;SDS011;45916;52.734;6.544;2023-03-11T05:37:56;6.45;;;2.85;;
60038;SDS011;45916;52.734;6.544;2023-03-11T05:40:22;7.50;;;3.15;;
60038;SDS011;45916;52.734;6.544;2023-03-11T05:42:48;8.07;;;3.00;;
60038;SDS011;45916;52.734;6.544;2023-03-11T05:45:14;7.47;;;2.80;;
60038;SDS011;45916;52.734;6.544;2023-03-11T05:47:39;6.65;;;2.67;;
60038;SDS011;45916;52.734;6.544;2023-03-11T05:50:06;7.18;;;2.72;;
60038;SDS011;45916;52.734;6.544;2023-03-11T05:52:33;7.13;;;2.88;;
60038;SDS011;45916;52.734;6.544;2023-03-11T05:54:59;6.28;;;2.92;;
60038;SDS011;45916;52.734;6.544;2023-03-11T05:57:24;6.45;;;2.78;;
60038;SDS011;45916;52.734;6.544;2023-03-11T05:59:50;7.22;;;2.58;;
60038;SDS011;45916;52.734;6.544;2023-03-11T06:02:16;5.95;;;2.70;;
60038;SDS011;45916;52.734;6.544;2023-03-11T06:04:42;5.68;;;2.40;;
60038;SDS011;45916;52.734;6.544;2023-03-11T06:07:08;6.80;;;2.67;;
60038;SDS011;45916;52.734;6.544;2023-03-11T06:09:33;7.57;;;3.20;;
60038;SDS011;45916;52.734;6.544;2023-03-11T06:12:03;9.48;;;3.08;;
60038;SDS011;45916;52.734;6.544;2023-03-11T06:14:29;7.57;;;3.20;;
60038;SDS011;45916;52.734;6.544;2023-03-11T06:16:57;8.10;;;2.70;;
60038;SDS011;45916;52.734;6.544;2023-03-11T06:19:23;5.15;;;2.50;;
60038;SDS011;45916;52.734;6.544;2023-03-11T06:21:50;7.18;;;3.15;;
60038;SDS011;45916;52.734;6.544;2023-03-11T06:24:16;5.40;;;2.78;;
60038;SDS011;45916;52.734;6.544;2023-03-11T06:26:42;5.38;;;3.30;;
60038;SDS011;45916;52.734;6.544;2023-03-11T06:29:11;7.05;;;2.78;;
60038;SDS011;45916;52.734;6.544;2023-03-11T06:31:38;7.82;;;3.42;;
60038;SDS011;45916;52.734;6.544;2023-03-11T06:34:04;372.38;;;86.75;;
60038;SDS011;45916;52.734;6.544;2023-03-11T06:36:30;140.57;;;28.35;;
60038;SDS011;45916;52.734;6.544;2023-03-11T06:38:56;1999.90;;;652.25;;
60038;SDS011;45916;52.734;6.544;2023-03-11T06:41:23;1999.90;;;598.65;;
60038;SDS011;45916;52.734;6.544;2023-03-11T06:43:49;1999.90;;;563.30;;
60038;SDS011;45916;52.734;6.544;2023-03-11T06:46:15;639.28;;;156.50;;
60038;SDS011;45916;52.734;6.544;2023-03-11T06:48:43;1612.20;;;414.40;;
60038;SDS011;45916;52.734;6.544;2023-03-11T06:51:10;1999.90;;;654.07;;
60038;SDS011;45916;52.734;6.544;2023-03-11T06:53:36;1084.00;;;276.48;;
60038;SDS011;45916;52.734;6.544;2023-03-11T06:58:37;1931.50;;;454.00;;
60038;SDS011;45916;52.734;6.544;2023-03-11T07:01:05;1577.68;;;324.10;;
60038;SDS011;45916;52.734;6.544;2023-03-11T07:03:34;1116.60;;;249.15;;
60038;SDS011;45916;52.734;6.544;2023-03-11T07:05:59;584.47;;;128.38;;
60038;SDS011;45916;52.734;6.544;2023-03-11T07:08:25;496.13;;;110.05;;
60038;SDS011;45916;52.734;6.544;2023-03-11T07:11:25;71.28;;;17.60;;
60038;SDS011;45916;52.734;6.544;2023-03-11T07:13:45;5.05;;;1.85;;
60038;SDS011;45916;52.734;6.544;2023-03-11T07:16:15;6.40;;;1.77;;
60038;SDS011;45916;52.734;6.544;2023-03-11T07:18:43;6.05;;;1.80;;
60038;SDS011;45916;52.734;6.544;2023-03-11T07:21:10;4.43;;;1.90;;
60038;SDS011;45916;52.734;6.544;2023-03-11T07:23:41;5.35;;;1.90;;
60038;SDS011;45916;52.734;6.544;2023-03-11T07:26:11;5.70;;;2.28;;
60038;SDS011;45916;52.734;6.544;2023-03-11T07:28:38;4.50;;;1.80;;
60038;SDS011;45916;52.734;6.544;2023-03-11T07:31:08;6.43;;;1.85;;
60038;SDS011;45916;52.734;6.544;2023-03-11T07:33:34;7.80;;;2.55;;
60038;SDS011;45916;52.734;6.544;2023-03-11T07:36:03;5.35;;;2.53;;
60038;SDS011;45916;52.734;6.544;2023-03-11T07:38:30;5.13;;;2.20;;
60038;SDS011;45916;52.734;6.544;2023-03-11T07:40:57;5.68;;;2.28;;
60038;SDS011;45916;52.734;6.544;2023-03-11T07:43:23;4.68;;;2.20;;
60038;SDS011;45916;52.734;6.544;2023-03-11T07:45:49;5.63;;;2.05;;
60038;SDS011;45916;52.734;6.544;2023-03-11T07:48:15;5.32;;;2.20;;
60038;SDS011;45916;52.734;6.544;2023-03-11T07:50:42;4.95;;;1.55;;
60038;SDS011;45916;52.734;6.544;2023-03-11T07:53:08;4.78;;;1.90;;
60038;SDS011;45916;52.734;6.544;2023-03-11T07:55:33;4.20;;;1.75;;
60038;SDS011;45916;52.734;6.544;2023-03-11T07:57:59;4.07;;;1.73;;
60038;SDS011;45916;52.734;6.544;2023-03-11T08:00:25;6.60;;;1.83;;
60038;SDS011;45916;52.734;6.544;2023-03-11T08:02:51;5.30;;;1.40;;
60038;SDS011;45916;52.734;6.544;2023-03-11T08:05:16;5.68;;;1.88;;
60038;SDS011;45916;52.734;6.544;2023-03-11T08:07:44;3.70;;;1.50;;
60038;SDS011;45916;52.734;6.544;2023-03-11T08:10:10;6.72;;;1.40;;
60038;SDS011;45916;52.734;6.544;2023-03-11T08:12:37;5.35;;;1.02;;
60038;SDS011;45916;52.734;6.544;2023-03-11T08:15:02;4.95;;;1.67;;
60038;SDS011;45916;52.734;6.544;2023-03-11T08:17:29;4.93;;;1.63;;
60038;SDS011;45916;52.734;6.544;2023-03-11T08:19:54;5.63;;;1.73;;
60038;SDS011;45916;52.734;6.544;2023-03-11T08:22:20;7.25;;;1.33;;
60038;SDS011;45916;52.734;6.544;2023-03-11T08:24:49;6.05;;;1.85;;
60038;SDS011;45916;52.734;6.544;2023-03-11T08:27:15;5.30;;;1.40;;
60038;SDS011;45916;52.734;6.544;2023-03-11T08:29:41;7.35;;;1.55;;
60038;SDS011;45916;52.734;6.544;2023-03-11T08:32:07;3.85;;;1.15;;
60038;SDS011;45916;52.734;6.544;2023-03-11T08:34:32;4.55;;;1.13;;
60038;SDS011;45916;52.734;6.544;2023-03-11T08:36:59;3.42;;;1.05;;
60038;SDS011;45916;52.734;6.544;2023-03-11T08:39:31;5.47;;;1.77;;
60038;SDS011;45916;52.734;6.544;2023-03-11T08:41:57;8.52;;;2.13;;
60038;SDS011;45916;52.734;6.544;2023-03-11T08:44:23;8.00;;;2.30;;
60038;SDS011;45916;52.734;6.544;2023-03-11T08:46:49;4.45;;;1.80;;
60038;SDS011;45916;52.734;6.544;2023-03-11T08:49:15;3.90;;;1.58;;
60038;SDS011;45916;52.734;6.544;2023-03-11T08:51:41;4.78;;;2.00;;
60038;SDS011;45916;52.734;6.544;2023-03-11T08:54:06;5.07;;;1.17;;
60038;SDS011;45916;52.734;6.544;2023-03-11T08:56:33;4.18;;;1.45;;
60038;SDS011;45916;52.734;6.544;2023-03-11T08:58:59;4.10;;;1.17;;
60038;SDS011;45916;52.734;6.544;2023-03-11T09:01:25;5.00;;;1.40;;
60038;SDS011;45916;52.734;6.544;2023-03-11T09:03:51;4.05;;;1.40;;
60038;SDS011;45916;52.734;6.544;2023-03-11T09:06:17;5.75;;;1.35;;
60038;SDS011;45916;52.734;6.544;2023-03-11T09:08:44;4.72;;;1.38;;
60038;SDS011;45916;52.734;6.544;2023-03-11T09:11:10;6.50;;;1.33;;
60038;SDS011;45916;52.734;6.544;2023-03-11T09:13:40;4.85;;;1.45;;
60038;SDS011;45916;52.734;6.544;2023-03-11T09:16:14;5.60;;;1.50;;
60038;SDS011;45916;52.734;6.544;2023-03-11T09:18:41;5.38;;;1.40;;
60038;SDS011;45916;52.734;6.544;2023-03-11T09:21:08;5.43;;;1.30;;
60038;SDS011;45916;52.734;6.544;2023-03-11T09:23:34;3.97;;;1.30;;
60038;SDS011;45916;52.734;6.544;2023-03-11T09:25:59;6.85;;;1.77;;
60038;SDS011;45916;52.734;6.544;2023-03-11T09:28:25;4.65;;;1.52;;
60038;SDS011;45916;52.734;6.544;2023-03-11T09:30:51;5.00;;;1.33;;
60038;SDS011;45916;52.734;6.544;2023-03-11T09:33:16;6.97;;;1.50;;
60038;SDS011;45916;52.734;6.544;2023-03-11T09:35:42;4.20;;;1.40;;
60038;SDS011;45916;52.734;6.544;2023-03-11T09:38:09;6.43;;;1.60;;
60038;SDS011;45916;52.734;6.544;2023-03-11T09:51:24;4.07;;;1.80;;
60038;SDS011;45916;52.734;6.544;2023-03-11T09:53:54;5.60;;;2.00;;
60038;SDS011;45916;52.734;6.544;2023-03-11T09:56:27;4.78;;;1.77;;
60038;SDS011;45916;52.734;6.544;2023-03-11T09:59:00;4.85;;;1.63;;
60038;SDS011;45916;52.734;6.544;2023-03-11T10:01:47;7.05;;;1.70;;
60038;SDS011;45916;52.734;6.544;2023-03-11T10:04:25;4.38;;;1.65;;
60038;SDS011;45916;52.734;6.544;2023-03-11T10:07:08;4.22;;;1.52;;
60038;SDS011;45916;52.734;6.544;2023-03-11T10:28:26;8.75;;;2.15;;
60038;SDS011;45916;52.734;6.544;2023-03-11T10:31:20;7.68;;;2.60;;
60038;SDS011;45916;52.734;6.544;2023-03-11T10:36:28;8.05;;;1.88;;
60038;SDS011;45916;52.734;6.544;2023-03-11T10:39:18;4.80;;;1.75;;
60038;SDS011;45916;52.734;6.544;2023-03-11T10:41:48;5.97;;;1.45;;
60038;SDS011;45916;52.734;6.544;2023-03-11T10:46:53;6.10;;;2.03;;
60038;SDS011;45916;52.734;6.544;2023-03-11T10:49:19;7.85;;;2.28;;
60038;SDS011;45916;52.734;6.544;2023-03-11T10:51:46;6.82;;;2.00;;
60038;SDS011;45916;52.734;6.544;2023-03-11T10:54:33;5.72;;;1.77;;
60038;SDS011;45916;52.734;6.544;2023-03-11T10:57:17;6.13;;;1.70;;
60038;SDS011;45916;52.734;6.544;2023-03-11T10:59:55;5.88;;;1.77;;
60038;SDS011;45916;52.734;6.544;2023-03-11T11:02:23;4.63;;;1.38;;
60038;SDS011;45916;52.734;6.544;2023-03-11T11:07:41;5.65;;;1.73;;
60038;SDS011;45916;52.734;6.544;2023-03-11T11:12:53;3.75;;;1.20;;
60038;SDS011;45916;52.734;6.544;2023-03-11T11:15:25;5.93;;;1.75;;
60038;SDS011;45916;52.734;6.544;2023-03-11T11:17:53;5.65;;;2.10;;
60038;SDS011;45916;52.734;6.544;2023-03-11T11:20:21;5.63;;;1.35;;
60038;SDS011;45916;52.734;6.544;2023-03-11T11:22:52;6.72;;;1.20;;
60038;SDS011;45916;52.734;6.544;2023-03-11T11:25:31;7.90;;;2.08;;
60038;SDS011;45916;52.734;6.544;2023-03-11T11:28:07;4.90;;;1.45;;
60038;SDS011;45916;52.734;6.544;2023-03-11T11:30:57;4.75;;;1.20;;
60038;SDS011;45916;52.734;6.544;2023-03-11T11:36:03;5.85;;;1.55;;
60038;SDS011;45916;52.734;6.544;2023-03-11T11:38:30;5.60;;;1.50;;
60038;SDS011;45916;52.734;6.544;2023-03-11T11:40:58;7.73;;;1.93;;
60038;SDS011;45916;52.734;6.544;2023-03-11T11:43:32;8.05;;;1.80;;
60038;SDS011;45916;52.734;6.544;2023-03-11T11:52:05;6.88;;;2.28;;
60038;SDS011;45916;52.734;6.544;2023-03-11T11:54:39;4.57;;;1.25;;
60038;SDS011;45916;52.734;6.544;2023-03-11T11:57:11;5.47;;;1.00;;
60038;SDS011;45916;52.734;6.544;2023-03-11T11:59:41;5.10;;;1.40;;
60038;SDS011;45916;52.734;6.544;2023-03-11T12:04:56;4.60;;;1.00;;
60038;SDS011;45916;52.734;6.544;2023-03-11T12:18:42;4.78;;;1.50;;
60038;SDS011;45916;52.734;6.544;2023-03-11T12:24:09;3.88;;;1.20;;
60038;SDS011;45916;52.734;6.544;2023-03-11T12:26:45;4.88;;;1.25;;
60038;SDS011;45916;52.734;6.544;2023-03-11T12:29:25;4.78;;;1.48;;
60038;SDS011;45916;52.734;6.544;2023-03-11T12:31:58;5.05;;;1.27;;
60038;SDS011;45916;52.734;6.544;2023-03-11T12:34:25;4.78;;;1.25;;
60038;SDS011;45916;52.734;6.544;2023-03-11T12:36:52;3.92;;;1.17;;
60038;SDS011;45916;52.734;6.544;2023-03-11T12:39:22;4.43;;;1.20;;
60038;SDS011;45916;52.734;6.544;2023-03-11T12:44:37;4.03;;;1.10;;
60038;SDS011;45916;52.734;6.544;2023-03-11T12:49:34;5.72;;;1.52;;
60038;SDS011;45916;52.734;6.544;2023-03-11T12:54:37;5.07;;;1.40;;
60038;SDS011;45916;52.734;6.544;2023-03-11T12:57:13;4.30;;;1.20;;
60038;SDS011;45916;52.734;6.544;2023-03-11T13:02:27;4.35;;;1.40;;
60038;SDS011;45916;52.734;6.544;2023-03-11T13:10:48;4.43;;;0.90;;
60038;SDS011;45916;52.734;6.544;2023-03-11T13:13:22;3.88;;;0.90;;
60038;SDS011;45916;52.734;6.544;2023-03-11T13:15:48;6.10;;;1.15;;
60038;SDS011;45916;52.734;6.544;2023-03-11T13:18:15;2.55;;;0.73;;
60038;SDS011;45916;52.734;6.544;2023-03-11T13:20:58;4.88;;;0.82;;
60038;SDS011;45916;52.734;6.544;2023-03-11T13:23:35;4.45;;;0.80;;
60038;SDS011;45916;52.734;6.544;2023-03-11T13:34:34;3.40;;;1.00;;
60038;SDS011;45916;52.734;6.544;2023-03-11T13:43:06;2.78;;;0.98;;
60038;SDS011;45916;52.734;6.544;2023-03-11T13:45:41;3.07;;;1.00;;
60038;SDS011;45916;52.734;6.544;2023-03-11T13:48:29;5.38;;;1.10;;
60038;SDS011;45916;52.734;6.544;2023-03-11T13:51:19;3.58;;;1.13;;
60038;SDS011;45916;52.734;6.544;2023-03-11T13:53:56;4.32;;;1.15;;
60038;SDS011;45916;52.734;6.544;2023-03-11T13:56:30;4.88;;;1.48;;
60038;SDS011;45916;52.734;6.544;2023-03-11T13:59:23;4.53;;;1.30;;
60038;SDS011;45916;52.734;6.544;2023-03-11T14:07:30;3.25;;;1.00;;
60038;SDS011;45916;52.734;6.544;2023-03-11T14:10:15;4.20;;;1.00;;
60038;SDS011;45916;52.734;6.544;2023-03-11T14:12:41;4.05;;;1.05;;
60038;SDS011;45916;52.734;6.544;2023-03-11T14:15:07;5.47;;;1.60;;
60038;SDS011;45916;52.734;6.544;2023-03-11T14:17:38;4.53;;;1.10;;
60038;SDS011;45916;52.734;6.544;2023-03-11T14:22:47;3.47;;;1.02;;
60038;SDS011;45916;52.734;6.544;2023-03-11T14:25:16;4.47;;;1.05;;
60038;SDS011;45916;52.734;6.544;2023-03-11T14:27:50;3.53;;;0.93;;
60038;SDS011;45916;52.734;6.544;2023-03-11T14:30:26;3.45;;;0.98;;
60038;SDS011;45916;52.734;6.544;2023-03-11T14:33:03;3.63;;;1.15;;
60038;SDS011;45916;52.734;6.544;2023-03-11T14:35:48;3.47;;;1.17;;
60038;SDS011;45916;52.734;6.544;2023-03-11T14:38:20;5.35;;;1.05;;
60038;SDS011;45916;52.734;6.544;2023-03-11T14:40:53;5.50;;;1.10;;
60038;SDS011;45916;52.734;6.544;2023-03-11T14:43:30;7.95;;;1.77;;
60038;SDS011;45916;52.734;6.544;2023-03-11T14:45:58;6.15;;;1.35;;
60038;SDS011;45916;52.734;6.544;2023-03-11T14:48:27;6.68;;;1.30;;
60038;SDS011;45916;52.734;6.544;2023-03-11T14:51:03;3.72;;;1.10;;
60038;SDS011;45916;52.734;6.544;2023-03-11T14:53:36;3.88;;;1.20;;
60038;SDS011;45916;52.734;6.544;2023-03-11T14:56:21;6.35;;;1.30;;
60038;SDS011;45916;52.734;6.544;2023-03-11T14:59:00;4.25;;;1.50;;
60038;SDS011;45916;52.734;6.544;2023-03-11T15:01:34;5.30;;;1.60;;
60038;SDS011;45916;52.734;6.544;2023-03-11T15:06:34;6.35;;;1.30;;
60038;SDS011;45916;52.734;6.544;2023-03-11T15:09:07;4.10;;;1.20;;
60038;SDS011;45916;52.734;6.544;2023-03-11T15:11:47;4.70;;;1.10;;
60038;SDS011;45916;52.734;6.544;2023-03-11T15:16:49;4.75;;;1.60;;
60038;SDS011;45916;52.734;6.544;2023-03-11T15:21:57;5.07;;;1.58;;
60038;SDS011;45916;52.734;6.544;2023-03-11T15:24:27;5.43;;;1.30;;
60038;SDS011;45916;52.734;6.544;2023-03-11T15:29:29;2.95;;;1.20;;
60038;SDS011;45916;52.734;6.544;2023-03-11T15:31:56;4.00;;;1.48;;
60038;SDS011;45916;52.734;6.544;2023-03-11T15:34:25;6.22;;;1.80;;
60038;SDS011;45916;52.734;6.544;2023-03-11T15:37:00;4.53;;;1.58;;
60038;SDS011;45916;52.734;6.544;2023-03-11T15:42:17;4.18;;;1.50;;
60038;SDS011;45916;52.734;6.544;2023-03-11T15:47:16;5.63;;;1.40;;
60038;SDS011;45916;52.734;6.544;2023-03-11T15:52:10;5.32;;;1.63;;
60038;SDS011;45916;52.734;6.544;2023-03-11T15:54:36;3.85;;;1.27;;
60038;SDS011;45916;52.734;6.544;2023-03-11T15:57:04;3.70;;;1.40;;
60038;SDS011;45916;52.734;6.544;2023-03-11T15:59:31;4.28;;;1.33;;
60038;SDS011;45916;52.734;6.544;2023-03-11T16:01:58;4.30;;;1.25;;
60038;SDS011;45916;52.734;6.544;2023-03-11T16:04:24;4.53;;;1.50;;
60038;SDS011;45916;52.734;6.544;2023-03-11T16:06:50;3.67;;;1.20;;
60038;SDS011;45916;52.734;6.544;2023-03-11T16:09:17;4.80;;;1.43;;
60038;SDS011;45916;52.734;6.544;2023-03-11T16:11:43;5.78;;;2.53;;
60038;SDS011;45916;52.734;6.544;2023-03-11T16:14:12;11.45;;;3.30;;
60038;SDS011;45916;52.734;6.544;2023-03-11T16:16:41;6.15;;;2.08;;
60038;SDS011;45916;52.734;6.544;2023-03-11T16:19:07;7.22;;;2.10;;
60038;SDS011;45916;52.734;6.544;2023-03-11T16:21:34;6.88;;;4.82;;
60038;SDS011;45916;52.734;6.544;2023-03-11T16:24:11;8.02;;;2.03;;
60038;SDS011;45916;52.734;6.544;2023-03-11T16:26:45;4.53;;;1.40;;
60038;SDS011;45916;52.734;6.544;2023-03-11T16:29:10;4.78;;;1.33;;
60038;SDS011;45916;52.734;6.544;2023-03-11T16:31:36;5.10;;;2.20;;
60038;SDS011;45916;52.734;6.544;2023-03-11T16:34:02;3.95;;;1.42;;
60038;SDS011;45916;52.734;6.544;2023-03-11T16:36:28;5.20;;;1.70;;
60038;SDS011;45916;52.734;6.544;2023-03-11T16:38:53;17.45;;;10.43;;
60038;SDS011;45916;52.734;6.544;2023-03-11T16:41:19;6.10;;;2.90;;
60038;SDS011;45916;52.734;6.544;2023-03-11T16:43:45;6.63;;;2.97;;
60038;SDS011;45916;52.734;6.544;2023-03-11T16:46:11;5.90;;;2.90;;
60038;SDS011;45916;52.734;6.544;2023-03-11T16:48:37;7.57;;;2.22;;
60038;SDS011;45916;52.734;6.544;2023-03-11T16:51:04;12.18;;;7.00;;
60038;SDS011;45916;52.734;6.544;2023-03-11T16:53:30;7.53;;;3.13;;
60038;SDS011;45916;52.734;6.544;2023-03-11T16:55:55;5.75;;;1.58;;
60038;SDS011;45916;52.734;6.544;2023-03-11T16:58:21;8.20;;;1.88;;
60038;SDS011;45916;52.734;6.544;2023-03-11T17:00:47;5.20;;;1.50;;
60038;SDS011;45916;52.734;6.544;2023-03-11T17:03:13;6.63;;;1.77;;
60038;SDS011;45916;52.734;6.544;2023-03-11T17:05:40;4.60;;;1.40;;
60038;SDS011;45916;52.734;6.544;2023-03-11T17:08:06;5.20;;;1.50;;
60038;SDS011;45916;52.734;6.544;2023-03-11T17:10:39;5.03;;;1.50;;
60038;SDS011;45916;52.734;6.544;2023-03-11T17:13:07;4.68;;;1.63;;